createdAt,value
2023-01-13T00:01:27.755Z,14.22
2023-01-13T00:03:55.311Z,13.74
2023-01-13T00:06:29.325Z,14.04
2023-01-13T00:08:57.908Z,13.98
2023-01-13T00:11:26.421Z,13.62
2023-01-13T00:13:54.121Z,13.57
2023-01-13T00:16:22.028Z,13.67
2023-01-13T00:18:51.301Z,13.86
2023-01-13T00:21:24.357Z,14.52
2023-01-13T00:23:55.506Z,14.36
2023-01-13T00:26:30.617Z,14.46
2023-01-13T00:28:59.229Z,14.30
2023-01-13T00:31:28.674Z,13.81
2023-01-13T00:34:00.693Z,14.11
2023-01-13T00:36:29.332Z,14.10
2023-01-13T00:38:56.789Z,14.78
2023-01-13T00:41:26.313Z,14.17
2023-01-13T00:43:53.825Z,14.20
2023-01-13T00:46:22.907Z,13.98
2023-01-13T00:48:51.622Z,14.10
2023-01-13T00:51:21.328Z,14.15
2023-01-13T00:53:52.577Z,13.98
2023-01-13T00:56:38.564Z,13.80
2023-01-13T00:59:06.740Z,14.77
2023-01-13T01:01:34.006Z,13.97
2023-01-13T01:04:01.286Z,13.87
2023-01-13T01:06:29.030Z,14.04
2023-01-13T01:08:56.928Z,14.31
2023-01-13T01:11:31.143Z,14.18
2023-01-13T01:14:02.135Z,14.82
2023-01-13T01:16:31.601Z,14.50
2023-01-13T01:18:59.773Z,13.98
2023-01-13T01:21:28.929Z,14.00
2023-01-13T01:23:59.375Z,14.17
2023-01-13T01:26:28.155Z,13.89
2023-01-13T01:28:56.266Z,14.55
2023-01-13T01:31:32.730Z,13.75
2023-01-13T01:34:01.100Z,14.51
2023-01-13T01:36:30.361Z,13.89
2023-01-13T01:38:59.478Z,14.84
2023-01-13T01:41:31.723Z,14.65
2023-01-13T01:44:03.027Z,15.13
2023-01-13T01:46:44.082Z,14.76
2023-01-13T01:49:26.444Z,14.19
2023-01-13T01:51:54.227Z,14.52
2023-01-13T01:54:30.973Z,14.55
2023-01-13T01:56:58.740Z,14.33
2023-01-13T01:59:32.100Z,14.78
2023-01-13T02:01:59.342Z,14.60
2023-01-13T02:04:35.561Z,14.75
2023-01-13T02:07:04.054Z,14.64
2023-01-13T02:09:32.171Z,14.30
2023-01-13T02:12:18.112Z,14.39
2023-01-13T02:14:45.957Z,13.97
2023-01-13T02:17:22.061Z,14.62
2023-01-13T02:20:03.973Z,14.70
2023-01-13T02:23:08.845Z,15.01
2023-01-13T02:26:19.381Z,15.57
2023-01-13T02:29:49.140Z,14.40
2023-01-13T02:33:03.852Z,13.83
2023-01-13T02:35:40.576Z,14.32
2023-01-13T02:38:11.486Z,14.49
2023-01-13T02:40:55.868Z,15.19
2023-01-13T02:43:57.645Z,14.44
2023-01-13T02:46:31.128Z,14.24
2023-01-13T02:49:05.883Z,14.59
2023-01-13T02:51:34.071Z,14.18
2023-01-13T02:54:11.379Z,14.95
2023-01-13T02:56:45.015Z,14.67
2023-01-13T02:59:13.292Z,14.59
2023-01-13T03:01:41.369Z,14.53
2023-01-13T03:04:45.562Z,14.29
2023-01-13T03:07:44.554Z,14.55
2023-01-13T03:10:34.447Z,14.85
2023-01-13T03:13:14.284Z,14.37
2023-01-13T03:15:53.214Z,14.70
2023-01-13T03:18:32.135Z,14.25
2023-01-13T03:21:26.756Z,14.66
2023-01-13T03:24:27.430Z,14.88
2023-01-13T03:27:04.084Z,14.28
2023-01-13T03:29:49.305Z,15.09
2023-01-13T03:32:35.120Z,15.16
2023-01-13T03:35:17.695Z,15.09
2023-01-13T03:37:51.940Z,14.21
2023-01-13T03:40:28.032Z,15.11
2023-01-13T03:43:19.558Z,14.39
2023-01-13T03:45:55.211Z,15.19
2023-01-13T03:48:26.368Z,14.87
2023-01-13T03:50:58.216Z,14.17
2023-01-13T03:53:31.412Z,14.46
2023-01-13T03:56:09.142Z,14.34
2023-01-13T03:58:41.875Z,14.73
2023-01-13T04:01:21.204Z,14.24
2023-01-13T04:04:03.774Z,14.81
2023-01-13T04:06:53.304Z,14.98
2023-01-13T04:09:49.563Z,14.65
2023-01-13T04:12:23.785Z,13.88
2023-01-13T04:14:52.371Z,14.42
2023-01-13T04:17:20.647Z,14.72
2023-01-13T04:19:47.647Z,14.94
2023-01-13T04:22:14.613Z,14.44
2023-01-13T04:24:41.554Z,14.23
2023-01-13T04:27:08.544Z,14.65
2023-01-13T04:29:35.547Z,14.36
2023-01-13T04:32:02.563Z,13.66
2023-01-13T04:34:29.953Z,13.62
2023-01-13T04:36:57.547Z,13.78
2023-01-13T04:39:24.494Z,14.48
2023-01-13T04:41:57.725Z,13.66
2023-01-13T04:44:25.062Z,14.04
2023-01-13T04:46:52.195Z,14.19
2023-01-13T04:49:19.155Z,14.23
2023-01-13T04:51:46.559Z,14.35
2023-01-13T04:54:13.600Z,14.05
2023-01-13T04:56:40.568Z,14.32
2023-01-13T04:59:08.807Z,13.53
2023-01-13T05:01:35.776Z,14.59
2023-01-13T05:04:03.325Z,14.65
2023-01-13T05:06:30.428Z,14.70
2023-01-13T05:08:57.457Z,14.26
2023-01-13T05:11:42.841Z,14.24
2023-01-13T05:14:28.956Z,14.14
2023-01-13T05:17:03.591Z,14.82
2023-01-13T05:19:40.798Z,14.67
2023-01-13T05:22:26.171Z,14.20
2023-01-13T05:25:12.043Z,14.77
2023-01-13T05:27:39.003Z,13.99
2023-01-13T05:30:07.780Z,14.18
2023-01-13T05:32:34.756Z,14.06
2023-01-13T05:35:01.695Z,14.46
2023-01-13T05:37:28.724Z,14.30
2023-01-13T05:40:14.723Z,14.31
2023-01-13T05:43:00.479Z,14.05
2023-01-13T05:45:27.603Z,13.97
2023-01-13T05:47:54.836Z,14.40
2023-01-13T05:50:21.823Z,14.30
2023-01-13T05:52:49.126Z,14.42
2023-01-13T05:55:16.209Z,13.91
2023-01-13T05:57:43.191Z,14.56
2023-01-13T06:00:10.890Z,13.80
2023-01-13T06:02:40.775Z,14.06
2023-01-13T06:05:08.599Z,14.02
2023-01-13T06:07:35.607Z,14.31
2023-01-13T06:10:02.549Z,14.36
2023-01-13T06:12:29.509Z,14.51
2023-01-13T06:14:56.471Z,14.14
2023-01-13T06:17:23.441Z,14.23
2023-01-13T06:19:51.100Z,14.38
2023-01-13T06:22:24.533Z,14.48
2023-01-13T06:24:53.763Z,14.28
2023-01-13T06:27:22.367Z,14.54
2023-01-13T06:29:49.725Z,14.64
2023-01-13T06:32:20.955Z,14.68
2023-01-13T06:34:57.837Z,14.85
2023-01-13T06:37:26.211Z,14.58
2023-01-13T06:39:58.462Z,14.38
2023-01-13T06:42:46.777Z,14.21
2023-01-13T06:45:14.227Z,14.64
2023-01-13T06:47:41.511Z,14.64
2023-01-13T06:50:09.649Z,14.61
2023-01-13T06:52:36.658Z,14.86
2023-01-13T06:55:04.304Z,14.49
2023-01-13T06:57:31.258Z,14.28
2023-01-13T06:59:58.216Z,14.16
2023-01-13T07:02:25.933Z,14.14
2023-01-13T07:04:52.976Z,14.75
2023-01-13T07:07:19.943Z,14.65
2023-01-13T07:09:46.917Z,14.39
2023-01-13T07:12:17.019Z,14.57
2023-01-13T07:15:02.439Z,14.81
2023-01-13T07:17:29.369Z,14.50
2023-01-13T07:19:57.999Z,14.04
2023-01-13T07:22:25.128Z,15.02
2023-01-13T07:24:52.116Z,14.32
2023-01-13T07:27:19.473Z,14.40
2023-01-13T07:29:46.431Z,14.58
2023-01-13T07:32:13.364Z,13.72
2023-01-13T07:34:40.315Z,13.91
2023-01-13T07:37:07.306Z,13.89
2023-01-13T07:39:34.263Z,14.25
2023-01-13T07:42:20.104Z,13.97
2023-01-13T07:44:47.194Z,14.83
2023-01-13T07:47:14.599Z,14.33
2023-01-13T07:49:41.544Z,14.37
2023-01-13T07:52:08.935Z,14.03
2023-01-13T07:54:40.993Z,14.13
2023-01-13T07:57:08.554Z,14.14
2023-01-13T07:59:35.478Z,14.78
2023-01-13T08:02:03.114Z,14.43
2023-01-13T08:04:30.216Z,14.24
2023-01-13T08:06:57.580Z,14.83
2023-01-13T08:09:24.623Z,14.61
2023-01-13T08:12:13.068Z,14.60
2023-01-13T08:14:40.271Z,14.53
2023-01-13T08:17:10.483Z,14.31
2023-01-13T08:19:38.015Z,14.84
2023-01-13T08:22:05.048Z,14.95
2023-01-13T08:24:32.014Z,14.13
2023-01-13T08:26:59.387Z,17.84
2023-01-13T08:29:26.336Z,15.11
2023-01-13T08:31:53.309Z,16.38
2023-01-13T08:34:20.732Z,15.10
2023-01-13T08:36:50.532Z,15.03
2023-01-13T08:39:18.631Z,14.31
2023-01-13T08:41:58.469Z,14.12
2023-01-13T08:44:31.670Z,14.47
2023-01-13T08:46:59.500Z,14.10
2023-01-13T08:49:26.907Z,13.84
2023-01-13T08:51:54.372Z,13.67
2023-01-13T08:54:21.410Z,14.50
2023-01-13T08:56:48.820Z,14.39
2023-01-13T08:59:19.215Z,14.70
2023-01-13T09:01:46.731Z,14.85
2023-01-13T09:04:20.883Z,14.85
2023-01-13T09:06:48.622Z,14.59
2023-01-13T09:09:15.687Z,14.31
2023-01-13T09:12:04.698Z,14.12
2023-01-13T09:14:35.014Z,13.26
2023-01-13T09:17:02.511Z,13.15
2023-01-13T09:19:30.324Z,13.35
2023-01-13T09:21:57.796Z,12.81
2023-01-13T09:24:25.524Z,13.93
2023-01-13T09:26:53.212Z,28.22
2023-01-13T09:29:20.607Z,29.40
2023-01-13T09:31:48.068Z,28.08
2023-01-13T09:34:37.254Z,18.14
2023-01-13T09:37:06.728Z,14.79
2023-01-13T09:39:35.440Z,14.15
2023-01-13T09:43:00.727Z,13.34
2023-01-13T09:45:58.063Z,14.03
2023-01-13T09:48:51.812Z,12.49
2023-01-13T09:51:35.679Z,13.65
2023-01-13T09:54:32.415Z,13.50
2023-01-13T09:56:59.856Z,13.42
2023-01-13T09:59:36.448Z,13.51
2023-01-13T10:02:37.923Z,13.56
2023-01-13T10:05:20.074Z,14.18
2023-01-13T10:07:57.372Z,14.13
2023-01-13T10:10:47.154Z,15.04
2023-01-13T10:13:31.734Z,13.99
2023-01-13T10:16:10.684Z,14.57
2023-01-13T10:19:05.422Z,14.13
2023-01-13T10:22:15.683Z,13.55
2023-01-13T10:25:20.622Z,13.77
2023-01-13T10:27:55.961Z,12.91
2023-01-13T10:30:34.615Z,13.94
2023-01-13T10:33:21.462Z,13.95
2023-01-13T10:36:02.750Z,13.43
2023-01-13T10:38:38.688Z,12.73
2023-01-13T10:41:14.663Z,12.84
2023-01-13T10:44:16.517Z,13.06
2023-01-13T10:46:58.746Z,13.53
2023-01-13T10:49:38.633Z,12.77
2023-01-13T10:52:27.278Z,12.98
2023-01-13T10:54:55.512Z,12.36
2023-01-13T10:57:28.155Z,12.80
2023-01-13T10:59:56.294Z,11.84
2023-01-13T11:02:29.426Z,11.94
2023-01-13T11:04:58.051Z,12.13
2023-01-13T11:07:40.663Z,13.00
2023-01-13T11:10:21.274Z,12.38
2023-01-13T11:13:36.338Z,12.85
2023-01-13T11:16:16.707Z,11.79
2023-01-13T11:19:14.168Z,13.16
2023-01-13T11:22:01.043Z,12.59
2023-01-13T11:24:52.759Z,11.95
2023-01-13T11:27:55.582Z,12.32
2023-01-13T11:30:41.234Z,12.00
2023-01-13T11:33:41.777Z,12.72
2023-01-13T11:36:23.685Z,12.62
2023-01-13T11:38:59.003Z,12.78
2023-01-13T11:41:39.893Z,12.86
2023-01-13T11:44:24.579Z,12.49
2023-01-13T11:46:53.674Z,12.56
2023-01-13T11:49:29.528Z,12.40
2023-01-13T11:52:21.785Z,11.91
2023-01-13T11:55:24.077Z,12.86
2023-01-13T11:58:33.708Z,11.82
2023-01-13T12:01:27.808Z,12.03
2023-01-13T12:04:22.886Z,13.22
2023-01-13T12:07:41.316Z,12.94
2023-01-13T12:10:30.033Z,13.34
2023-01-13T12:13:25.636Z,13.43
2023-01-13T12:16:14.669Z,12.60
2023-01-13T12:19:25.016Z,13.77
2023-01-13T12:22:16.450Z,13.42
2023-01-13T12:24:58.334Z,13.29
2023-01-13T12:27:53.757Z,12.57
2023-01-13T12:30:52.313Z,13.24
2023-01-13T12:33:52.017Z,12.42
2023-01-13T12:36:32.301Z,12.98
2023-01-13T12:39:13.487Z,12.55
2023-01-13T12:42:23.501Z,13.16
2023-01-13T12:45:12.421Z,12.87
2023-01-13T12:47:44.676Z,12.14
2023-01-13T12:50:23.880Z,12.57
2023-01-13T12:53:00.286Z,12.88
2023-01-13T12:55:27.607Z,11.73
2023-01-13T12:58:06.586Z,12.90
2023-01-13T13:00:39.809Z,12.55
2023-01-13T13:03:33.345Z,12.23
2023-01-13T13:06:21.940Z,13.16
2023-01-13T13:09:14.210Z,12.84
2023-01-13T13:11:59.611Z,13.15
2023-01-13T13:14:41.833Z,13.92
2023-01-13T13:17:31.641Z,13.98
2023-01-13T13:20:00.448Z,13.86
2023-01-13T13:22:27.735Z,13.15
2023-01-13T13:24:55.018Z,13.60
2023-01-13T13:27:47.838Z,14.56
2023-01-13T13:30:29.862Z,15.53
2023-01-13T13:33:20.895Z,17.90
2023-01-13T13:36:06.618Z,15.68
2023-01-13T13:39:26.323Z,13.40
2023-01-13T13:42:27.440Z,14.05
2023-01-13T13:45:13.917Z,13.59
2023-01-13T13:47:41.466Z,13.49
2023-01-13T13:50:21.725Z,14.12
2023-01-13T13:53:05.356Z,14.47
2023-01-13T13:55:32.876Z,13.15
2023-01-13T13:58:01.662Z,12.57
2023-01-13T14:00:35.952Z,12.38
2023-01-13T14:03:04.359Z,13.05
2023-01-13T14:05:36.133Z,13.12
2023-01-13T14:08:18.088Z,12.82
2023-01-13T14:10:46.761Z,12.43
2023-01-13T14:13:26.168Z,13.71
2023-01-13T14:16:11.004Z,12.88
2023-01-13T14:18:48.455Z,13.35
2023-01-13T14:21:19.228Z,12.23
2023-01-13T14:23:56.768Z,12.78
2023-01-13T14:26:31.033Z,11.71
2023-01-13T14:29:01.136Z,11.76
2023-01-13T14:31:29.121Z,12.27
2023-01-13T14:33:59.704Z,12.07
2023-01-13T14:36:37.949Z,12.30
2023-01-13T14:39:05.371Z,11.44
2023-01-13T14:41:47.062Z,12.20
2023-01-13T14:44:20.993Z,12.39
2023-01-13T14:46:48.515Z,12.29
2023-01-13T14:49:52.397Z,12.15
2023-01-13T14:52:23.379Z,12.21
2023-01-13T14:55:08.507Z,13.03
2023-01-13T14:57:39.466Z,11.79
2023-01-13T15:00:23.601Z,12.05
2023-01-13T15:02:53.716Z,12.16
2023-01-13T15:05:23.855Z,11.25
2023-01-13T15:08:14.080Z,11.66
2023-01-13T15:11:00.154Z,12.80
2023-01-13T15:13:42.663Z,12.54
2023-01-13T15:16:24.835Z,12.27
2023-01-13T15:18:52.999Z,12.19
2023-01-13T15:21:20.372Z,11.08
2023-01-13T15:23:47.831Z,12.99
2023-01-13T15:26:28.817Z,12.00
2023-01-13T15:28:58.332Z,11.23
2023-01-13T15:31:27.515Z,11.14
2023-01-13T15:33:55.410Z,11.09
2023-01-13T15:36:27.687Z,12.12
2023-01-13T15:38:54.942Z,11.29
2023-01-13T15:41:42.386Z,11.45
2023-01-13T15:44:33.741Z,10.71
2023-01-13T15:47:06.292Z,11.32
2023-01-13T15:49:46.334Z,12.70
2023-01-13T15:52:23.346Z,12.05
2023-01-13T15:54:51.689Z,11.83
2023-01-13T15:57:31.038Z,12.03
2023-01-13T16:00:01.838Z,11.47
2023-01-13T16:02:34.410Z,12.51
2023-01-13T16:05:01.832Z,11.53
2023-01-13T16:07:29.433Z,10.48
2023-01-13T16:09:56.904Z,10.72
2023-01-13T16:12:24.465Z,10.75
2023-01-13T16:14:51.467Z,10.95
2023-01-13T16:17:24.191Z,11.33
2023-01-13T16:19:52.195Z,11.34
2023-01-13T16:22:19.287Z,12.11
2023-01-13T16:24:46.763Z,10.61
2023-01-13T16:27:23.180Z,10.59
2023-01-13T16:29:52.017Z,11.54
2023-01-13T16:32:22.108Z,10.80
2023-01-13T16:34:51.779Z,11.09
2023-01-13T16:37:25.684Z,11.31
2023-01-13T16:39:54.244Z,11.51
2023-01-13T16:42:21.938Z,10.57
2023-01-13T16:44:50.768Z,10.88
2023-01-13T16:47:18.779Z,11.03
2023-01-13T16:49:46.272Z,11.82
2023-01-13T16:52:13.943Z,11.31
2023-01-13T16:54:43.538Z,11.20
2023-01-13T16:57:14.340Z,11.86
2023-01-13T16:59:41.328Z,12.14
2023-01-13T17:02:14.720Z,11.36
2023-01-13T17:04:41.754Z,11.20
2023-01-13T17:07:10.567Z,11.87
2023-01-13T17:09:37.953Z,10.80
2023-01-13T17:12:05.437Z,12.02
2023-01-13T17:14:32.427Z,12.13
2023-01-13T17:16:59.373Z,12.76
2023-01-13T17:19:26.538Z,11.87
2023-01-13T17:21:53.880Z,12.00
2023-01-13T17:24:21.704Z,12.28
2023-01-13T17:26:50.923Z,12.27
2023-01-13T17:29:25.142Z,12.16
2023-01-13T17:31:53.222Z,12.67
2023-01-13T17:34:21.243Z,11.20
2023-01-13T17:36:48.896Z,11.74
2023-01-13T17:39:22.239Z,12.45
2023-01-13T17:41:50.473Z,12.21
2023-01-13T17:44:20.359Z,12.27
2023-01-13T17:46:48.894Z,11.94
2023-01-13T17:49:18.700Z,12.30
2023-01-13T17:51:48.213Z,12.00
2023-01-13T17:54:15.722Z,12.23
2023-01-13T17:56:43.771Z,11.94
2023-01-13T17:59:15.909Z,11.02
2023-01-13T18:01:43.406Z,12.08
2023-01-13T18:04:24.036Z,10.65
2023-01-13T18:06:51.576Z,11.28
2023-01-13T18:09:18.551Z,10.72
2023-01-13T18:11:47.219Z,10.75
2023-01-13T18:14:15.337Z,11.09
2023-01-13T18:16:43.347Z,11.33
2023-01-13T18:19:29.619Z,12.37
2023-01-13T18:22:14.922Z,11.58
2023-01-13T18:25:00.766Z,11.68
2023-01-13T18:27:33.503Z,12.14
2023-01-13T18:30:03.460Z,12.62
2023-01-13T18:32:33.392Z,11.71
2023-01-13T18:35:06.374Z,12.12
2023-01-13T18:37:38.746Z,12.06
2023-01-13T18:40:09.368Z,12.17
2023-01-13T18:42:54.106Z,11.98
2023-01-13T18:45:30.422Z,11.60
2023-01-13T18:48:01.596Z,12.08
2023-01-13T18:50:29.331Z,11.17
2023-01-13T18:52:57.308Z,11.41
2023-01-13T18:55:24.384Z,11.01
2023-01-13T18:57:51.866Z,10.96
2023-01-13T19:00:21.107Z,10.82
2023-01-13T19:02:50.654Z,11.22
2023-01-13T19:05:18.159Z,10.67
2023-01-13T19:07:50.574Z,11.03
2023-01-13T19:10:18.509Z,11.72
2023-01-13T19:12:45.978Z,10.84
2023-01-13T19:15:12.992Z,10.53
2023-01-13T19:17:40.093Z,10.84
2023-01-13T19:20:08.073Z,11.62
2023-01-13T19:22:35.353Z,10.88
2023-01-13T19:25:04.525Z,11.80
2023-01-13T19:27:32.029Z,10.82
2023-01-13T19:30:00.637Z,11.34
2023-01-13T19:32:30.603Z,11.02
2023-01-13T19:34:59.558Z,11.42
2023-01-13T19:37:30.192Z,11.75
2023-01-13T19:40:00.459Z,11.01
2023-01-13T19:42:46.503Z,11.22
2023-01-13T19:45:27.335Z,11.52
2023-01-13T19:47:56.044Z,11.16
2023-01-13T19:50:23.415Z,11.53
2023-01-13T19:52:50.830Z,10.93
2023-01-13T19:55:19.678Z,11.74
2023-01-13T19:57:46.846Z,10.94
2023-01-13T20:00:18.300Z,10.71
2023-01-13T20:02:49.098Z,11.84
2023-01-13T20:05:22.592Z,11.24
2023-01-13T20:07:51.145Z,10.70
2023-01-13T20:10:20.927Z,11.25
2023-01-13T20:12:48.380Z,10.85
2023-01-13T20:15:15.635Z,9.95
2023-01-13T20:17:42.646Z,10.46
2023-01-13T20:20:11.871Z,10.73
2023-01-13T20:22:39.763Z,10.69
2023-01-13T20:25:08.428Z,11.13
2023-01-13T20:27:37.241Z,11.35
2023-01-13T20:30:06.101Z,10.34
2023-01-13T20:32:33.062Z,10.54
2023-01-13T20:35:00.045Z,10.42
2023-01-13T20:37:27.372Z,10.57
2023-01-13T20:39:55.257Z,10.61
2023-01-13T20:42:31.909Z,11.21
2023-01-13T20:45:01.062Z,11.25
2023-01-13T20:47:29.486Z,10.68
2023-01-13T20:49:56.605Z,11.89
2023-01-13T20:52:24.671Z,10.50
2023-01-13T20:54:52.107Z,10.33
2023-01-13T20:57:19.519Z,10.23
2023-01-13T20:59:46.952Z,10.81
2023-01-13T21:02:16.511Z,10.51
2023-01-13T21:04:44.033Z,10.64
2023-01-13T21:07:11.249Z,10.66
2023-01-13T21:09:38.650Z,11.91
2023-01-13T21:12:25.316Z,12.35
2023-01-13T21:15:11.118Z,10.12
2023-01-13T21:17:56.912Z,11.75
2023-01-13T21:20:23.864Z,11.48
2023-01-13T21:22:50.892Z,11.74
2023-01-13T21:25:19.349Z,12.13
2023-01-13T21:27:46.739Z,11.85
2023-01-13T21:30:15.523Z,11.90
2023-01-13T21:32:44.385Z,11.61
2023-01-13T21:35:12.562Z,10.90
2023-01-13T21:37:42.604Z,11.18
2023-01-13T21:40:13.064Z,10.63
2023-01-13T21:42:58.574Z,9.92
2023-01-13T21:45:44.486Z,11.42
2023-01-13T21:48:11.498Z,10.14
2023-01-13T21:50:38.678Z,10.08
2023-01-13T21:53:07.879Z,11.11
2023-01-13T21:55:36.765Z,10.97
2023-01-13T21:58:11.904Z,9.70
2023-01-13T22:00:41.353Z,10.59
2023-01-13T22:03:11.262Z,11.10
2023-01-13T22:05:38.747Z,10.49
2023-01-13T22:08:06.407Z,10.44
2023-01-13T22:10:34.298Z,11.03
2023-01-13T22:13:22.918Z,11.04
2023-01-13T22:15:50.310Z,10.59
2023-01-13T22:18:18.267Z,11.02
2023-01-13T22:20:45.763Z,10.47
2023-01-13T22:23:13.486Z,10.17
2023-01-13T22:25:40.439Z,10.61
2023-01-13T22:28:09.127Z,10.89
2023-01-13T22:30:36.394Z,10.74
2023-01-13T22:33:03.547Z,11.20
2023-01-13T22:35:30.546Z,10.49
2023-01-13T22:37:58.327Z,10.44
2023-01-13T22:40:25.257Z,9.87
2023-01-13T22:42:52.646Z,10.57
2023-01-13T22:45:20.004Z,10.38
2023-01-13T22:47:47.643Z,9.66
2023-01-13T22:50:18.293Z,10.55
2023-01-13T22:52:45.697Z,10.46
2023-01-13T22:55:13.069Z,9.76
2023-01-13T22:57:47.704Z,9.51
2023-01-13T23:00:18.924Z,10.32
2023-01-13T23:02:46.641Z,10.63
2023-01-13T23:05:13.944Z,10.20
2023-01-13T23:07:41.442Z,9.56
2023-01-13T23:10:09.270Z,10.38
2023-01-13T23:12:36.235Z,9.83
2023-01-13T23:15:04.337Z,10.74
2023-01-13T23:17:31.783Z,10.70
2023-01-13T23:19:58.745Z,11.44
2023-01-13T23:22:25.780Z,11.58
2023-01-13T23:24:53.165Z,10.55
2023-01-13T23:27:20.531Z,10.90
2023-01-13T23:29:49.002Z,11.30
2023-01-13T23:32:16.112Z,11.51
2023-01-13T23:34:43.050Z,9.78
2023-01-13T23:37:09.977Z,9.86
2023-01-13T23:39:36.974Z,10.54
2023-01-13T23:42:04.353Z,10.59
2023-01-13T23:44:31.307Z,10.94
2023-01-13T23:46:58.590Z,11.25
2023-01-13T23:49:25.937Z,10.05
2023-01-13T23:51:53.136Z,10.48
2023-01-13T23:54:20.086Z,10.89
2023-01-13T23:56:50.418Z,11.05
2023-01-13T23:59:17.385Z,10.35
